sensor_id;sensor_type;location;lat;lon;timestamp;temperature;humidity
913;DHT22;443;51.448;7.028;2023-07-24T00:01:17;19.70;81.30
913;DHT22;443;51.448;7.028;2023-07-24T00:03:44;19.70;81.10
913;DHT22;443;51.448;7.028;2023-07-24T00:06:10;19.70;81.10
913;DHT22;443;51.448;7.028;2023-07-24T00:08:37;19.70;80.90
913;DHT22;443;51.448;7.028;2023-07-24T00:11:07;19.70;81.30
913;DHT22;443;51.448;7.028;2023-07-24T00:13:35;19.70;81.20
913;DHT22;443;51.448;7.028;2023-07-24T00:16:06;19.70;81.10
913;DHT22;443;51.448;7.028;2023-07-24T00:18:33;19.70;81.10
913;DHT22;443;51.448;7.028;2023-07-24T00:21:00;19.70;81.10
913;DHT22;443;51.448;7.028;2023-07-24T00:23:27;19.70;81.10
913;DHT22;443;51.448;7.028;2023-07-24T00:25:53;19.70;81.10
913;DHT22;443;51.448;7.028;2023-07-24T00:28:20;19.70;81.10
913;DHT22;443;51.448;7.028;2023-07-24T00:30:48;19.70;81.10
913;DHT22;443;51.448;7.028;2023-07-24T00:33:15;19.70;81.10
913;DHT22;443;51.448;7.028;2023-07-24T00:35:42;19.70;81.10
913;DHT22;443;51.448;7.028;2023-07-24T00:38:08;19.70;81.30
913;DHT22;443;51.448;7.028;2023-07-24T00:40:35;19.70;81.20
913;DHT22;443;51.448;7.028;2023-07-24T00:43:02;19.70;81.50
913;DHT22;443;51.448;7.028;2023-07-24T00:45:29;19.70;81.30
913;DHT22;443;51.448;7.028;2023-07-24T00:47:58;19.70;81.60
913;DHT22;443;51.448;7.028;2023-07-24T00:50:25;19.70;81.50
913;DHT22;443;51.448;7.028;2023-07-24T00:52:53;19.70;81.70
913;DHT22;443;51.448;7.028;2023-07-24T00:55:20;19.70;81.50
913;DHT22;443;51.448;7.028;2023-07-24T00:57:47;19.70;81.80
913;DHT22;443;51.448;7.028;2023-07-24T01:00:14;19.70;81.50
913;DHT22;443;51.448;7.028;2023-07-24T01:02:42;19.70;81.70
913;DHT22;443;51.448;7.028;2023-07-24T01:05:12;19.70;81.80
913;DHT22;443;51.448;7.028;2023-07-24T01:07:39;19.70;82.00
913;DHT22;443;51.448;7.028;2023-07-24T01:10:06;19.70;81.40
913;DHT22;443;51.448;7.028;2023-07-24T01:12:43;19.70;81.70
913;DHT22;443;51.448;7.028;2023-07-24T01:15:16;19.70;81.70
913;DHT22;443;51.448;7.028;2023-07-24T01:17:47;19.70;81.70
913;DHT22;443;51.448;7.028;2023-07-24T01:20:17;19.70;82.00
913;DHT22;443;51.448;7.028;2023-07-24T01:22:54;19.70;81.80
913;DHT22;443;51.448;7.028;2023-07-24T01:25:28;19.70;81.90
913;DHT22;443;51.448;7.028;2023-07-24T01:27:59;19.70;81.60
913;DHT22;443;51.448;7.028;2023-07-24T01:30:25;19.70;82.10
913;DHT22;443;51.448;7.028;2023-07-24T01:32:52;19.70;81.70
913;DHT22;443;51.448;7.028;2023-07-24T01:35:19;19.70;82.00
913;DHT22;443;51.448;7.028;2023-07-24T01:37:47;19.70;81.70
913;DHT22;443;51.448;7.028;2023-07-24T01:40:15;19.70;81.60
913;DHT22;443;51.448;7.028;2023-07-24T01:42:42;19.70;81.60
913;DHT22;443;51.448;7.028;2023-07-24T01:45:10;19.70;81.80
913;DHT22;443;51.448;7.028;2023-07-24T01:47:38;19.70;81.60
913;DHT22;443;51.448;7.028;2023-07-24T01:50:05;19.70;81.80
913;DHT22;443;51.448;7.028;2023-07-24T01:52:32;19.70;81.80
913;DHT22;443;51.448;7.028;2023-07-24T01:54:59;19.70;82.00
913;DHT22;443;51.448;7.028;2023-07-24T01:57:26;19.70;82.30
913;DHT22;443;51.448;7.028;2023-07-24T01:59:53;19.70;82.00
913;DHT22;443;51.448;7.028;2023-07-24T02:02:21;19.70;82.10
913;DHT22;443;51.448;7.028;2023-07-24T02:04:48;19.70;82.00
913;DHT22;443;51.448;7.028;2023-07-24T02:07:14;19.70;81.90
913;DHT22;443;51.448;7.028;2023-07-24T02:09:41;19.60;81.70
913;DHT22;443;51.448;7.028;2023-07-24T02:12:08;19.60;82.00
913;DHT22;443;51.448;7.028;2023-07-24T02:14:35;19.70;82.20
913;DHT22;443;51.448;7.028;2023-07-24T02:17:01;19.70;82.00
913;DHT22;443;51.448;7.028;2023-07-24T02:19:30;19.60;81.80
913;DHT22;443;51.448;7.028;2023-07-24T02:21:56;19.70;82.30
913;DHT22;443;51.448;7.028;2023-07-24T02:24:23;19.70;82.20
913;DHT22;443;51.448;7.028;2023-07-24T02:26:50;19.70;82.10
913;DHT22;443;51.448;7.028;2023-07-24T02:29:16;19.70;82.10
913;DHT22;443;51.448;7.028;2023-07-24T02:31:44;19.70;82.10
913;DHT22;443;51.448;7.028;2023-07-24T02:34:11;19.70;82.30
913;DHT22;443;51.448;7.028;2023-07-24T02:36:39;19.70;82.20
913;DHT22;443;51.448;7.028;2023-07-24T02:39:08;19.70;82.50
913;DHT22;443;51.448;7.028;2023-07-24T02:41:35;19.70;82.40
913;DHT22;443;51.448;7.028;2023-07-24T02:44:02;19.70;82.20
913;DHT22;443;51.448;7.028;2023-07-24T02:46:29;19.70;82.50
913;DHT22;443;51.448;7.028;2023-07-24T02:48:56;19.70;82.40
913;DHT22;443;51.448;7.028;2023-07-24T02:51:23;19.70;82.50
913;DHT22;443;51.448;7.028;2023-07-24T02:53:53;19.70;82.60
913;DHT22;443;51.448;7.028;2023-07-24T02:56:20;19.70;82.50
913;DHT22;443;51.448;7.028;2023-07-24T02:58:47;19.70;82.80
913;DHT22;443;51.448;7.028;2023-07-24T03:01:14;19.70;82.60
913;DHT22;443;51.448;7.028;2023-07-24T03:03:41;19.70;82.30
913;DHT22;443;51.448;7.028;2023-07-24T03:06:08;19.70;82.00
913;DHT22;443;51.448;7.028;2023-07-24T03:08:34;19.70;82.30
913;DHT22;443;51.448;7.028;2023-07-24T03:11:04;19.70;82.50
913;DHT22;443;51.448;7.028;2023-07-24T03:13:31;19.70;82.60
913;DHT22;443;51.448;7.028;2023-07-24T03:15:58;19.70;82.20
913;DHT22;443;51.448;7.028;2023-07-24T03:18:25;19.70;82.40
913;DHT22;443;51.448;7.028;2023-07-24T03:20:52;19.70;82.70
913;DHT22;443;51.448;7.028;2023-07-24T03:23:20;19.70;82.40
913;DHT22;443;51.448;7.028;2023-07-24T03:25:47;19.70;83.30
913;DHT22;443;51.448;7.028;2023-07-24T03:28:16;19.70;82.70
913;DHT22;443;51.448;7.028;2023-07-24T03:30:46;19.70;82.70
913;DHT22;443;51.448;7.028;2023-07-24T03:33:14;19.70;82.60
913;DHT22;443;51.448;7.028;2023-07-24T03:35:41;19.70;82.50
913;DHT22;443;51.448;7.028;2023-07-24T03:38:12;19.70;83.50
913;DHT22;443;51.448;7.028;2023-07-24T03:40:39;19.70;82.90
913;DHT22;443;51.448;7.028;2023-07-24T03:43:06;19.70;83.10
913;DHT22;443;51.448;7.028;2023-07-24T03:45:35;19.70;83.20
913;DHT22;443;51.448;7.028;2023-07-24T03:48:03;19.70;83.00
913;DHT22;443;51.448;7.028;2023-07-24T03:50:30;19.70;82.50
913;DHT22;443;51.448;7.028;2023-07-24T03:52:58;19.70;82.70
913;DHT22;443;51.448;7.028;2023-07-24T03:55:26;19.70;82.60
913;DHT22;443;51.448;7.028;2023-07-24T03:57:54;19.70;82.60
913;DHT22;443;51.448;7.028;2023-07-24T04:00:22;19.70;82.50
913;DHT22;443;51.448;7.028;2023-07-24T04:02:56;19.70;82.60
913;DHT22;443;51.448;7.028;2023-07-24T04:05:26;19.70;82.60
913;DHT22;443;51.448;7.028;2023-07-24T04:07:55;19.70;82.50
913;DHT22;443;51.448;7.028;2023-07-24T04:10:22;19.70;82.40
913;DHT22;443;51.448;7.028;2023-07-24T04:12:54;19.70;83.20
913;DHT22;443;51.448;7.028;2023-07-24T04:15:26;19.70;82.40
913;DHT22;443;51.448;7.028;2023-07-24T04:17:56;19.70;82.90
913;DHT22;443;51.448;7.028;2023-07-24T04:20:25;19.70;82.70
913;DHT22;443;51.448;7.028;2023-07-24T04:22:55;19.70;82.60
913;DHT22;443;51.448;7.028;2023-07-24T04:25:23;19.70;82.90
913;DHT22;443;51.448;7.028;2023-07-24T04:27:52;19.70;82.90
913;DHT22;443;51.448;7.028;2023-07-24T04:30:19;19.70;82.80
913;DHT22;443;51.448;7.028;2023-07-24T04:32:52;19.70;83.00
913;DHT22;443;51.448;7.028;2023-07-24T04:35:21;19.70;83.50
913;DHT22;443;51.448;7.028;2023-07-24T04:37:51;19.70;83.00
913;DHT22;443;51.448;7.028;2023-07-24T04:40:22;19.70;83.40
913;DHT22;443;51.448;7.028;2023-07-24T04:42:56;19.60;82.80
913;DHT22;443;51.448;7.028;2023-07-24T04:45:24;19.60;82.70
913;DHT22;443;51.448;7.028;2023-07-24T04:47:51;19.60;82.80
913;DHT22;443;51.448;7.028;2023-07-24T04:50:20;19.60;82.70
913;DHT22;443;51.448;7.028;2023-07-24T04:52:51;19.70;84.90
913;DHT22;443;51.448;7.028;2023-07-24T04:55:21;19.70;83.30
913;DHT22;443;51.448;7.028;2023-07-24T04:57:49;19.70;83.20
913;DHT22;443;51.448;7.028;2023-07-24T05:00:17;19.70;83.10
913;DHT22;443;51.448;7.028;2023-07-24T05:02:45;19.60;84.00
913;DHT22;443;51.448;7.028;2023-07-24T05:05:14;19.60;83.10
913;DHT22;443;51.448;7.028;2023-07-24T05:07:44;19.70;83.10
913;DHT22;443;51.448;7.028;2023-07-24T05:10:14;19.60;83.00
913;DHT22;443;51.448;7.028;2023-07-24T05:12:45;19.70;83.60
913;DHT22;443;51.448;7.028;2023-07-24T05:15:12;19.60;83.00
913;DHT22;443;51.448;7.028;2023-07-24T05:17:50;19.60;82.90
913;DHT22;443;51.448;7.028;2023-07-24T05:20:39;19.70;84.30
913;DHT22;443;51.448;7.028;2023-07-24T05:23:11;19.70;83.70
913;DHT22;443;51.448;7.028;2023-07-24T05:25:45;19.70;83.50
913;DHT22;443;51.448;7.028;2023-07-24T05:28:38;19.70;84.10
913;DHT22;443;51.448;7.028;2023-07-24T05:31:19;19.70;84.50
913;DHT22;443;51.448;7.028;2023-07-24T05:33:51;19.70;84.00
913;DHT22;443;51.448;7.028;2023-07-24T05:36:24;19.70;84.30
913;DHT22;443;51.448;7.028;2023-07-24T05:38:53;19.70;84.60
913;DHT22;443;51.448;7.028;2023-07-24T05:41:22;19.60;84.40
913;DHT22;443;51.448;7.028;2023-07-24T05:43:49;19.60;84.50
913;DHT22;443;51.448;7.028;2023-07-24T05:46:21;19.70;84.70
913;DHT22;443;51.448;7.028;2023-07-24T05:48:51;19.60;84.30
913;DHT22;443;51.448;7.028;2023-07-24T05:51:20;19.70;85.00
913;DHT22;443;51.448;7.028;2023-07-24T05:53:59;19.70;85.40
913;DHT22;443;51.448;7.028;2023-07-24T05:56:27;19.70;85.20
913;DHT22;443;51.448;7.028;2023-07-24T05:58:54;19.60;84.00
913;DHT22;443;51.448;7.028;2023-07-24T06:01:22;19.60;84.80
913;DHT22;443;51.448;7.028;2023-07-24T06:03:51;19.60;84.50
913;DHT22;443;51.448;7.028;2023-07-24T06:06:21;19.60;84.00
913;DHT22;443;51.448;7.028;2023-07-24T06:08:49;19.60;84.10
913;DHT22;443;51.448;7.028;2023-07-24T06:11:19;19.70;84.00
913;DHT22;443;51.448;7.028;2023-07-24T06:13:50;19.70;84.70
913;DHT22;443;51.448;7.028;2023-07-24T06:16:18;19.70;84.40
913;DHT22;443;51.448;7.028;2023-07-24T06:18:46;19.70;84.40
913;DHT22;443;51.448;7.028;2023-07-24T06:21:15;19.70;85.40
913;DHT22;443;51.448;7.028;2023-07-24T06:23:45;19.70;83.70
913;DHT22;443;51.448;7.028;2023-07-24T06:26:13;19.60;83.50
913;DHT22;443;51.448;7.028;2023-07-24T06:28:44;19.70;83.80
913;DHT22;443;51.448;7.028;2023-07-24T06:31:15;19.70;84.00
913;DHT22;443;51.448;7.028;2023-07-24T06:33:42;19.60;83.60
913;DHT22;443;51.448;7.028;2023-07-24T06:36:10;19.60;83.30
913;DHT22;443;51.448;7.028;2023-07-24T06:38:38;19.60;83.30
913;DHT22;443;51.448;7.028;2023-07-24T06:41:07;19.70;83.50
913;DHT22;443;51.448;7.028;2023-07-24T06:43:37;19.70;83.70
913;DHT22;443;51.448;7.028;2023-07-24T06:46:10;19.70;83.20
913;DHT22;443;51.448;7.028;2023-07-24T06:48:38;19.70;83.20
913;DHT22;443;51.448;7.028;2023-07-24T06:51:05;19.70;82.90
913;DHT22;443;51.448;7.028;2023-07-24T06:53:33;19.70;83.10
913;DHT22;443;51.448;7.028;2023-07-24T06:56:06;19.70;83.20
913;DHT22;443;51.448;7.028;2023-07-24T06:58:34;19.70;83.20
913;DHT22;443;51.448;7.028;2023-07-24T07:01:10;19.70;83.70
913;DHT22;443;51.448;7.028;2023-07-24T07:03:40;19.80;84.60
913;DHT22;443;51.448;7.028;2023-07-24T07:06:08;19.70;83.50
913;DHT22;443;51.448;7.028;2023-07-24T07:08:40;19.70;83.00
913;DHT22;443;51.448;7.028;2023-07-24T07:11:12;19.80;83.80
913;DHT22;443;51.448;7.028;2023-07-24T07:13:42;19.80;83.10
913;DHT22;443;51.448;7.028;2023-07-24T07:16:11;19.80;83.00
913;DHT22;443;51.448;7.028;2023-07-24T07:18:38;19.80;83.90
913;DHT22;443;51.448;7.028;2023-07-24T07:21:09;19.80;85.30
913;DHT22;443;51.448;7.028;2023-07-24T07:23:37;19.80;84.30
913;DHT22;443;51.448;7.028;2023-07-24T07:26:06;19.80;83.70
913;DHT22;443;51.448;7.028;2023-07-24T07:28:33;19.80;82.80
913;DHT22;443;51.448;7.028;2023-07-24T07:31:01;19.70;82.80
913;DHT22;443;51.448;7.028;2023-07-24T07:33:30;19.80;84.70
913;DHT22;443;51.448;7.028;2023-07-24T07:35:58;19.70;82.60
913;DHT22;443;51.448;7.028;2023-07-24T07:38:28;19.80;84.00
913;DHT22;443;51.448;7.028;2023-07-24T07:40:56;19.80;84.60
913;DHT22;443;51.448;7.028;2023-07-24T07:43:23;19.80;83.70
913;DHT22;443;51.448;7.028;2023-07-24T07:45:51;19.80;83.80
913;DHT22;443;51.448;7.028;2023-07-24T07:48:21;19.80;83.30
913;DHT22;443;51.448;7.028;2023-07-24T07:50:52;19.80;82.60
913;DHT22;443;51.448;7.028;2023-07-24T07:53:22;19.80;83.20
913;DHT22;443;51.448;7.028;2023-07-24T07:56:05;19.80;84.10
913;DHT22;443;51.448;7.028;2023-07-24T07:58:34;19.80;83.50
913;DHT22;443;51.448;7.028;2023-07-24T08:01:04;19.80;83.30
913;DHT22;443;51.448;7.028;2023-07-24T08:03:31;19.80;83.30
913;DHT22;443;51.448;7.028;2023-07-24T08:06:04;19.80;82.40
913;DHT22;443;51.448;7.028;2023-07-24T08:08:32;19.80;82.90
913;DHT22;443;51.448;7.028;2023-07-24T08:11:06;19.80;82.30
913;DHT22;443;51.448;7.028;2023-07-24T08:13:34;19.80;82.90
913;DHT22;443;51.448;7.028;2023-07-24T08:16:11;19.80;82.30
913;DHT22;443;51.448;7.028;2023-07-24T08:18:46;19.80;82.30
913;DHT22;443;51.448;7.028;2023-07-24T08:21:16;19.90;84.10
913;DHT22;443;51.448;7.028;2023-07-24T08:23:43;19.90;83.40
913;DHT22;443;51.448;7.028;2023-07-24T08:26:11;19.90;82.40
913;DHT22;443;51.448;7.028;2023-07-24T08:28:38;19.90;82.60
913;DHT22;443;51.448;7.028;2023-07-24T08:31:11;19.90;82.60
913;DHT22;443;51.448;7.028;2023-07-24T08:33:39;19.80;82.90
913;DHT22;443;51.448;7.028;2023-07-24T08:36:09;19.80;82.70
913;DHT22;443;51.448;7.028;2023-07-24T08:38:40;19.80;82.00
913;DHT22;443;51.448;7.028;2023-07-24T08:41:11;19.80;82.50
913;DHT22;443;51.448;7.028;2023-07-24T08:43:44;19.90;82.80
913;DHT22;443;51.448;7.028;2023-07-24T08:46:14;19.90;84.50
913;DHT22;443;51.448;7.028;2023-07-24T08:48:42;19.90;82.20
913;DHT22;443;51.448;7.028;2023-07-24T08:51:11;19.90;83.50
913;DHT22;443;51.448;7.028;2023-07-24T08:53:42;19.90;83.20
913;DHT22;443;51.448;7.028;2023-07-24T08:56:13;19.90;81.70
913;DHT22;443;51.448;7.028;2023-07-24T08:58:43;19.90;82.50
913;DHT22;443;51.448;7.028;2023-07-24T09:01:13;19.90;83.70
913;DHT22;443;51.448;7.028;2023-07-24T09:03:41;19.90;83.30
913;DHT22;443;51.448;7.028;2023-07-24T09:06:08;19.90;83.10
913;DHT22;443;51.448;7.028;2023-07-24T09:08:37;19.90;83.20
913;DHT22;443;51.448;7.028;2023-07-24T09:11:10;19.90;83.50
913;DHT22;443;51.448;7.028;2023-07-24T09:13:41;19.90;82.00
913;DHT22;443;51.448;7.028;2023-07-24T09:16:20;19.90;82.10
913;DHT22;443;51.448;7.028;2023-07-24T09:18:48;20.00;83.20
913;DHT22;443;51.448;7.028;2023-07-24T09:21:29;20.00;82.10
913;DHT22;443;51.448;7.028;2023-07-24T09:24:11;20.00;82.70
913;DHT22;443;51.448;7.028;2023-07-24T09:26:50;20.00;82.00
913;DHT22;443;51.448;7.028;2023-07-24T09:29:19;19.90;82.40
913;DHT22;443;51.448;7.028;2023-07-24T09:31:50;20.00;81.70
913;DHT22;443;51.448;7.028;2023-07-24T09:34:24;19.90;81.00
913;DHT22;443;51.448;7.028;2023-07-24T09:36:58;20.00;82.90
913;DHT22;443;51.448;7.028;2023-07-24T09:39:29;19.90;81.20
913;DHT22;443;51.448;7.028;2023-07-24T09:42:06;19.90;81.00
913;DHT22;443;51.448;7.028;2023-07-24T09:44:34;19.90;81.30
913;DHT22;443;51.448;7.028;2023-07-24T09:47:02;19.90;81.30
913;DHT22;443;51.448;7.028;2023-07-24T09:49:29;19.90;82.20
913;DHT22;443;51.448;7.028;2023-07-24T09:51:59;20.00;82.30
913;DHT22;443;51.448;7.028;2023-07-24T09:54:32;20.00;81.60
913;DHT22;443;51.448;7.028;2023-07-24T09:57:00;20.00;80.90
913;DHT22;443;51.448;7.028;2023-07-24T09:59:30;19.90;81.60
913;DHT22;443;51.448;7.028;2023-07-24T10:02:02;19.90;81.90
913;DHT22;443;51.448;7.028;2023-07-24T10:04:32;19.90;81.10
913;DHT22;443;51.448;7.028;2023-07-24T10:07:00;19.90;81.60
913;DHT22;443;51.448;7.028;2023-07-24T10:09:29;20.00;82.40
913;DHT22;443;51.448;7.028;2023-07-24T10:11:57;20.00;81.90
913;DHT22;443;51.448;7.028;2023-07-24T10:14:26;20.00;81.30
913;DHT22;443;51.448;7.028;2023-07-24T10:16:55;19.90;81.10
913;DHT22;443;51.448;7.028;2023-07-24T10:19:35;19.90;82.10
913;DHT22;443;51.448;7.028;2023-07-24T10:22:03;20.00;83.10
913;DHT22;443;51.448;7.028;2023-07-24T10:24:35;20.00;81.20
913;DHT22;443;51.448;7.028;2023-07-24T10:27:10;20.00;81.20
913;DHT22;443;51.448;7.028;2023-07-24T10:29:38;20.00;81.10
913;DHT22;443;51.448;7.028;2023-07-24T10:32:19;20.00;81.30
913;DHT22;443;51.448;7.028;2023-07-24T10:34:56;20.00;80.90
913;DHT22;443;51.448;7.028;2023-07-24T10:37:32;20.00;81.00
913;DHT22;443;51.448;7.028;2023-07-24T10:40:01;20.00;80.80
913;DHT22;443;51.448;7.028;2023-07-24T10:42:31;20.00;81.40
913;DHT22;443;51.448;7.028;2023-07-24T10:45:04;20.00;82.50
913;DHT22;443;51.448;7.028;2023-07-24T10:47:34;20.00;82.20
913;DHT22;443;51.448;7.028;2023-07-24T10:50:09;20.10;80.90
913;DHT22;443;51.448;7.028;2023-07-24T10:52:50;20.00;80.80
913;DHT22;443;51.448;7.028;2023-07-24T10:55:20;20.00;80.90
913;DHT22;443;51.448;7.028;2023-07-24T10:57:55;20.00;81.00
913;DHT22;443;51.448;7.028;2023-07-24T11:00:24;20.00;81.00
913;DHT22;443;51.448;7.028;2023-07-24T11:02:56;20.00;81.20
913;DHT22;443;51.448;7.028;2023-07-24T11:05:27;20.00;82.50
913;DHT22;443;51.448;7.028;2023-07-24T11:07:55;20.00;81.50
913;DHT22;443;51.448;7.028;2023-07-24T11:10:23;20.00;81.30
913;DHT22;443;51.448;7.028;2023-07-24T11:12:51;20.00;81.30
913;DHT22;443;51.448;7.028;2023-07-24T11:15:26;19.90;81.30
913;DHT22;443;51.448;7.028;2023-07-24T11:17:57;19.90;81.40
913;DHT22;443;51.448;7.028;2023-07-24T11:20:25;20.00;81.40
913;DHT22;443;51.448;7.028;2023-07-24T11:22:57;19.90;81.40
913;DHT22;443;51.448;7.028;2023-07-24T11:25:28;19.90;81.50
913;DHT22;443;51.448;7.028;2023-07-24T11:27:55;19.90;81.60
913;DHT22;443;51.448;7.028;2023-07-24T11:30:23;19.90;81.60
913;DHT22;443;51.448;7.028;2023-07-24T11:32:52;19.90;81.60
913;DHT22;443;51.448;7.028;2023-07-24T11:35:24;19.90;81.50
913;DHT22;443;51.448;7.028;2023-07-24T11:37:52;20.00;81.60
913;DHT22;443;51.448;7.028;2023-07-24T11:40:19;20.00;81.40
913;DHT22;443;51.448;7.028;2023-07-24T11:42:47;19.90;81.40
913;DHT22;443;51.448;7.028;2023-07-24T11:45:20;19.90;81.70
913;DHT22;443;51.448;7.028;2023-07-24T11:47:53;19.90;81.90
913;DHT22;443;51.448;7.028;2023-07-24T11:50:24;19.90;81.90
913;DHT22;443;51.448;7.028;2023-07-24T11:52:53;19.90;81.90
913;DHT22;443;51.448;7.028;2023-07-24T11:55:36;20.00;83.70
913;DHT22;443;51.448;7.028;2023-07-24T11:58:03;20.00;84.30
913;DHT22;443;51.448;7.028;2023-07-24T12:00:33;20.00;81.70
913;DHT22;443;51.448;7.028;2023-07-24T12:03:01;19.90;81.60
913;DHT22;443;51.448;7.028;2023-07-24T12:05:38;19.90;82.50
913;DHT22;443;51.448;7.028;2023-07-24T12:08:08;19.90;82.20
913;DHT22;443;51.448;7.028;2023-07-24T12:10:37;19.90;82.10
913;DHT22;443;51.448;7.028;2023-07-24T12:13:09;19.80;82.10
913;DHT22;443;51.448;7.028;2023-07-24T12:15:37;19.80;82.20
913;DHT22;443;51.448;7.028;2023-07-24T12:18:05;19.80;82.20
913;DHT22;443;51.448;7.028;2023-07-24T12:20:34;19.80;82.10
913;DHT22;443;51.448;7.028;2023-07-24T12:23:01;19.80;82.30
913;DHT22;443;51.448;7.028;2023-07-24T12:25:37;19.80;82.50
913;DHT22;443;51.448;7.028;2023-07-24T12:28:05;19.80;82.40
913;DHT22;443;51.448;7.028;2023-07-24T12:30:32;19.90;82.50
913;DHT22;443;51.448;7.028;2023-07-24T12:33:00;19.90;82.50
913;DHT22;443;51.448;7.028;2023-07-24T12:35:28;19.90;82.60
913;DHT22;443;51.448;7.028;2023-07-24T12:37:57;19.90;82.50
913;DHT22;443;51.448;7.028;2023-07-24T12:40:25;19.90;82.80
913;DHT22;443;51.448;7.028;2023-07-24T12:42:52;19.90;82.70
913;DHT22;443;51.448;7.028;2023-07-24T12:45:20;19.80;82.60
913;DHT22;443;51.448;7.028;2023-07-24T12:47:50;19.80;83.00
913;DHT22;443;51.448;7.028;2023-07-24T12:50:19;19.80;82.70
913;DHT22;443;51.448;7.028;2023-07-24T12:52:55;19.80;83.10
913;DHT22;443;51.448;7.028;2023-07-24T12:55:23;19.90;82.90
913;DHT22;443;51.448;7.028;2023-07-24T12:57:57;19.80;82.90
913;DHT22;443;51.448;7.028;2023-07-24T13:00:27;19.80;82.80
913;DHT22;443;51.448;7.028;2023-07-24T13:02:55;19.90;82.90
913;DHT22;443;51.448;7.028;2023-07-24T13:05:23;19.90;82.80
913;DHT22;443;51.448;7.028;2023-07-24T13:07:55;19.90;82.60
913;DHT22;443;51.448;7.028;2023-07-24T13:10:26;19.90;82.70
913;DHT22;443;51.448;7.028;2023-07-24T13:13:01;19.90;82.70
913;DHT22;443;51.448;7.028;2023-07-24T13:15:31;19.90;82.70
913;DHT22;443;51.448;7.028;2023-07-24T13:17:59;19.90;82.50
913;DHT22;443;51.448;7.028;2023-07-24T13:20:28;19.90;82.60
913;DHT22;443;51.448;7.028;2023-07-24T13:22:58;19.90;82.60
913;DHT22;443;51.448;7.028;2023-07-24T13:25:27;19.90;82.50
913;DHT22;443;51.448;7.028;2023-07-24T13:27:54;19.90;82.50
913;DHT22;443;51.448;7.028;2023-07-24T13:30:22;19.90;82.50
913;DHT22;443;51.448;7.028;2023-07-24T13:32:50;19.90;82.50
913;DHT22;443;51.448;7.028;2023-07-24T13:35:17;19.90;82.30
913;DHT22;443;51.448;7.028;2023-07-24T13:37:45;20.00;82.40
913;DHT22;443;51.448;7.028;2023-07-24T13:40:13;20.00;82.30
913;DHT22;443;51.448;7.028;2023-07-24T13:42:42;20.00;82.00
913;DHT22;443;51.448;7.028;2023-07-24T13:45:09;20.10;82.00
913;DHT22;443;51.448;7.028;2023-07-24T13:47:37;20.10;81.80
913;DHT22;443;51.448;7.028;2023-07-24T13:50:06;20.10;81.60
913;DHT22;443;51.448;7.028;2023-07-24T13:52:35;20.10;81.60
913;DHT22;443;51.448;7.028;2023-07-24T13:55:03;20.10;81.60
913;DHT22;443;51.448;7.028;2023-07-24T13:57:33;20.10;81.70
913;DHT22;443;51.448;7.028;2023-07-24T14:00:06;20.20;81.70
913;DHT22;443;51.448;7.028;2023-07-24T14:02:39;20.20;81.50
913;DHT22;443;51.448;7.028;2023-07-24T14:07:53;20.40;81.20
913;DHT22;443;51.448;7.028;2023-07-24T14:10:23;20.40;80.90
913;DHT22;443;51.448;7.028;2023-07-24T14:13:04;20.40;81.00
913;DHT22;443;51.448;7.028;2023-07-24T14:15:39;20.40;81.20
913;DHT22;443;51.448;7.028;2023-07-24T14:18:32;20.40;80.90
913;DHT22;443;51.448;7.028;2023-07-24T14:21:17;20.50;81.10
913;DHT22;443;51.448;7.028;2023-07-24T14:23:57;20.50;81.70
913;DHT22;443;51.448;7.028;2023-07-24T14:26:30;20.40;80.50
913;DHT22;443;51.448;7.028;2023-07-24T14:29:15;20.40;81.10
913;DHT22;443;51.448;7.028;2023-07-24T14:31:49;20.30;80.90
913;DHT22;443;51.448;7.028;2023-07-24T14:34:16;20.30;81.10
913;DHT22;443;51.448;7.028;2023-07-24T14:36:47;20.30;81.20
913;DHT22;443;51.448;7.028;2023-07-24T14:39:18;20.20;81.40
913;DHT22;443;51.448;7.028;2023-07-24T14:41:48;20.30;82.00
913;DHT22;443;51.448;7.028;2023-07-24T14:44:16;20.30;81.00
913;DHT22;443;51.448;7.028;2023-07-24T14:49:28;20.30;81.10
913;DHT22;443;51.448;7.028;2023-07-24T14:51:56;20.20;81.00
913;DHT22;443;51.448;7.028;2023-07-24T14:54:23;20.30;81.20
913;DHT22;443;51.448;7.028;2023-07-24T14:56:53;20.30;81.30
913;DHT22;443;51.448;7.028;2023-07-24T14:59:24;20.30;81.30
913;DHT22;443;51.448;7.028;2023-07-24T15:01:55;20.30;81.30
913;DHT22;443;51.448;7.028;2023-07-24T15:04:23;20.30;81.30
913;DHT22;443;51.448;7.028;2023-07-24T15:06:52;20.30;81.10
913;DHT22;443;51.448;7.028;2023-07-24T15:09:20;20.40;81.10
913;DHT22;443;51.448;7.028;2023-07-24T15:11:47;20.50;82.00
913;DHT22;443;51.448;7.028;2023-07-24T15:14:18;20.50;81.60
913;DHT22;443;51.448;7.028;2023-07-24T15:16:46;20.40;80.90
913;DHT22;443;51.448;7.028;2023-07-24T15:19:13;20.40;80.70
913;DHT22;443;51.448;7.028;2023-07-24T15:21:41;20.40;80.90
913;DHT22;443;51.448;7.028;2023-07-24T15:24:10;20.40;81.00
913;DHT22;443;51.448;7.028;2023-07-24T15:26:38;20.40;80.80
913;DHT22;443;51.448;7.028;2023-07-24T15:29:05;20.50;82.70
913;DHT22;443;51.448;7.028;2023-07-24T15:31:33;20.50;80.60
913;DHT22;443;51.448;7.028;2023-07-24T15:34:02;20.40;80.70
913;DHT22;443;51.448;7.028;2023-07-24T15:36:31;20.50;81.30
913;DHT22;443;51.448;7.028;2023-07-24T15:39:00;20.40;80.70
913;DHT22;443;51.448;7.028;2023-07-24T15:41:29;20.40;80.60
913;DHT22;443;51.448;7.028;2023-07-24T15:43:57;20.40;80.80
913;DHT22;443;51.448;7.028;2023-07-24T15:46:24;20.40;81.00
913;DHT22;443;51.448;7.028;2023-07-24T15:48:57;20.40;80.50
913;DHT22;443;51.448;7.028;2023-07-24T15:51:25;20.40;80.70
913;DHT22;443;51.448;7.028;2023-07-24T15:53:53;20.40;81.00
913;DHT22;443;51.448;7.028;2023-07-24T15:56:21;20.40;80.90
913;DHT22;443;51.448;7.028;2023-07-24T15:58:50;20.40;80.90
913;DHT22;443;51.448;7.028;2023-07-24T16:01:18;20.30;80.90
913;DHT22;443;51.448;7.028;2023-07-24T16:03:46;20.30;81.00
913;DHT22;443;51.448;7.028;2023-07-24T16:06:13;20.30;80.60
913;DHT22;443;51.448;7.028;2023-07-24T16:08:44;20.40;80.30
913;DHT22;443;51.448;7.028;2023-07-24T16:11:11;20.40;79.40
913;DHT22;443;51.448;7.028;2023-07-24T16:13:40;20.30;80.20
913;DHT22;443;51.448;7.028;2023-07-24T16:16:10;20.30;80.40
913;DHT22;443;51.448;7.028;2023-07-24T16:18:38;20.30;80.80
913;DHT22;443;51.448;7.028;2023-07-24T16:21:07;20.20;80.80
913;DHT22;443;51.448;7.028;2023-07-24T16:23:35;20.20;81.20
913;DHT22;443;51.448;7.028;2023-07-24T16:26:05;20.20;81.10
913;DHT22;443;51.448;7.028;2023-07-24T16:28:33;20.20;81.10
913;DHT22;443;51.448;7.028;2023-07-24T16:31:02;20.20;81.10
913;DHT22;443;51.448;7.028;2023-07-24T16:33:31;20.20;81.30
913;DHT22;443;51.448;7.028;2023-07-24T16:35:59;20.20;81.60
913;DHT22;443;51.448;7.028;2023-07-24T16:38:26;20.20;81.70
913;DHT22;443;51.448;7.028;2023-07-24T16:40:54;20.10;81.80
913;DHT22;443;51.448;7.028;2023-07-24T16:43:22;20.10;81.90
913;DHT22;443;51.448;7.028;2023-07-24T16:45:49;20.20;81.60
913;DHT22;443;51.448;7.028;2023-07-24T16:48:17;20.20;81.80
913;DHT22;443;51.448;7.028;2023-07-24T16:50:49;20.20;81.30
913;DHT22;443;51.448;7.028;2023-07-24T16:53:16;20.20;81.60
913;DHT22;443;51.448;7.028;2023-07-24T16:55:44;20.20;82.50